Time;durP1;ratioP1;P1;durP2;ratioP2;P2;SDS_P1;SDS_P2;PMS_P1;PMS_P2;Temp;Humidity;BMP_temperature;BMP_pressure;BME280_temperature;BME280_humidity;BME280_pressure;Samples;Min_cycle;Max_cycle;Signal;HPM_P1;HPM_P2
2021/01/15 00:02:22;;;;;;;1.80;0.60;;;;;;;;;;5059581;28;20223;-71
2021/01/15 00:04:49;;;;;;;0.83;0.63;;;;;;;;;;5060071;28;20235;-71
2021/01/15 00:07:16;;;;;;;0.80;0.60;;;;;;;;;;5060008;28;20667;-71
2021/01/15 00:09:46;;;;;;;0.97;0.70;;;;;;;;;;5059916;28;20210;-71
2021/01/15 00:12:13;;;;;;;1.80;0.70;;;;;;;;;;5060048;28;20206;-71
2021/01/15 00:14:40;;;;;;;0.37;0.37;;;;;;;;;;5059753;28;20305;-71
2021/01/15 00:17:07;;;;;;;0.30;0.30;;;;;;;;;;5059514;28;20640;-71
2021/01/15 00:19:34;;;;;;;0.73;0.57;;;;;;;;;;5059741;28;20218;-71
2021/01/15 00:22:02;;;;;;;0.57;0.43;;;;;;;;;;5059572;28;20595;-71
2021/01/15 00:24:29;;;;;;;1.20;0.40;;;;;;;;;;5059644;28;20231;-71
2021/01/15 00:26:56;;;;;;;0.60;0.60;;;;;;;;;;5059638;28;20217;-71
2021/01/15 00:29:23;;;;;;;0.57;0.50;;;;;;;;;;5059858;28;20208;-70
2021/01/15 00:31:50;;;;;;;0.50;0.50;;;;;;;;;;5059538;28;20288;-71
2021/01/15 00:34:18;;;;;;;0.37;0.33;;;;;;;;;;5059637;28;20238;-71
2021/01/15 00:36:46;;;;;;;0.50;0.40;;;;;;;;;;5059441;28;20210;-71
2021/01/15 00:39:14;;;;;;;2.00;0.80;;;;;;;;;;5059426;28;20317;-71
2021/01/15 00:41:43;;;;;;;0.53;0.53;;;;;;;;;;5059398;28;20318;-71
2021/01/15 00:44:10;;;;;;;0.40;0.40;;;;;;;;;;5059489;28;20237;-71
2021/01/15 00:46:43;;;;;;;0.50;0.50;;;;;;;;;;5059223;28;20210;-71
2021/01/15 00:49:11;;;;;;;0.40;0.40;;;;;;;;;;5059448;28;20685;-71
2021/01/15 00:51:38;;;;;;;0.60;0.60;;;;;;;;;;5059180;28;20210;-71
2021/01/15 00:54:05;;;;;;;0.30;0.30;;;;;;;;;;5059254;28;20285;-71
2021/01/15 00:56:33;;;;;;;0.60;0.60;;;;;;;;;;5058908;28;20550;-71
2021/01/15 00:59:01;;;;;;;0.60;0.60;;;;;;;;;;5058214;28;20616;-71
2021/01/15 01:01:27;;;;;;;0.50;0.50;;;;;;;;;;5058921;28;20309;-71
2021/01/15 01:03:55;;;;;;;0.73;0.60;;;;;;;;;;5058777;28;20729;-71
2021/01/15 01:06:22;;;;;;;0.97;0.47;;;;;;;;;;5058915;28;20257;-71
2021/01/15 01:08:49;;;;;;;1.17;0.50;;;;;;;;;;5058740;28;20206;-71
2021/01/15 01:11:19;;;;;;;1.27;0.70;;;;;;;;;;5058719;28;20203;-71
2021/01/15 01:13:47;;;;;;;0.50;0.50;;;;;;;;;;5058803;28;20210;-71
2021/01/15 01:16:14;;;;;;;0.50;0.50;;;;;;;;;;5058640;28;20227;-71
2021/01/15 01:18:42;;;;;;;0.50;0.50;;;;;;;;;;5058674;28;20257;-71
2021/01/15 01:21:09;;;;;;;1.10;0.40;;;;;;;;;;5058706;28;20222;-71
2021/01/15 01:23:36;;;;;;;0.70;0.60;;;;;;;;;;5058773;28;20286;-71
2021/01/15 01:26:03;;;;;;;0.50;0.50;;;;;;;;;;5058443;28;20709;-71
2021/01/15 01:28:31;;;;;;;0.50;0.50;;;;;;;;;;5058376;28;20294;-71
2021/01/15 01:30:59;;;;;;;1.80;0.40;;;;;;;;;;5058246;28;20265;-71
2021/01/15 01:33:26;;;;;;;1.80;0.40;;;;;;;;;;5058557;28;20207;-71
2021/01/15 01:35:53;;;;;;;0.47;0.47;;;;;;;;;;5058190;28;20254;-71
2021/01/15 01:38:20;;;;;;;0.50;0.50;;;;;;;;;;5058116;28;20665;-71
2021/01/15 01:40:47;;;;;;;0.50;0.50;;;;;;;;;;5058313;28;20213;-71
2021/01/15 01:43:14;;;;;;;0.40;0.40;;;;;;;;;;5058322;28;20238;-71
2021/01/15 01:45:41;;;;;;;0.50;0.43;;;;;;;;;;5058011;28;20231;-71
2021/01/15 01:48:09;;;;;;;1.07;0.43;;;;;;;;;;5058342;28;20289;-71
2021/01/15 01:50:36;;;;;;;0.60;0.60;;;;;;;;;;5058326;28;20217;-71
2021/01/15 01:53:04;;;;;;;0.47;0.40;;;;;;;;;;5058257;28;20209;-71
2021/01/15 01:55:31;;;;;;;1.37;0.47;;;;;;;;;;5058127;28;20682;-71
2021/01/15 01:57:58;;;;;;;1.33;0.60;;;;;;;;;;5057946;28;20217;-71
2021/01/15 02:00:30;;;;;;;0.93;0.50;;;;;;;;;;5057772;28;20210;-71
2021/01/15 02:02:57;;;;;;;0.57;0.50;;;;;;;;;;5057862;28;20229;-71
2021/01/15 02:05:25;;;;;;;0.40;0.40;;;;;;;;;;5057910;28;20265;-71
2021/01/15 02:07:52;;;;;;;0.53;0.33;;;;;;;;;;5058140;28;20214;-71
2021/01/15 02:10:20;;;;;;;0.40;0.40;;;;;;;;;;5057487;28;20203;-71
2021/01/15 02:12:50;;;;;;;0.30;0.30;;;;;;;;;;5057963;28;20238;-71
2021/01/15 02:15:20;;;;;;;0.87;0.30;;;;;;;;;;5057634;28;20234;-71
2021/01/15 02:17:50;;;;;;;0.40;0.40;;;;;;;;;;5057925;28;20206;-71
2021/01/15 02:20:25;;;;;;;0.43;0.43;;;;;;;;;;5058323;28;20206;-71
2021/01/15 02:23:01;;;;;;;0.53;0.40;;;;;;;;;;5058440;28;20262;-73
2021/01/15 02:25:46;;;;;;;0.70;0.50;;;;;;;;;;5058915;28;20230;-72
2021/01/15 02:28:25;;;;;;;0.37;0.37;;;;;;;;;;5058320;28;20241;-71
2021/01/15 02:31:05;;;;;;;0.57;0.40;;;;;;;;;;5057620;28;20202;-72
2021/01/15 02:33:40;;;;;;;0.30;0.30;;;;;;;;;;5057520;28;20210;-71
2021/01/15 02:36:11;;;;;;;0.20;0.20;;;;;;;;;;5057423;28;20249;-71
2021/01/15 02:38:43;;;;;;;0.40;0.40;;;;;;;;;;5057376;28;20289;-71
2021/01/15 02:41:21;;;;;;;0.30;0.30;;;;;;;;;;5057485;28;20211;-71
2021/01/15 02:43:53;;;;;;;0.40;0.40;;;;;;;;;;5057687;28;20210;-71
2021/01/15 02:46:26;;;;;;;0.30;0.30;;;;;;;;;;5057307;28;20210;-71
2021/01/15 02:48:55;;;;;;;0.30;0.30;;;;;;;;;;5057683;28;20268;-71
2021/01/15 02:51:22;;;;;;;0.67;0.30;;;;;;;;;;5057683;28;20208;-71
2021/01/15 02:53:49;;;;;;;2.07;0.50;;;;;;;;;;5057414;28;20282;-71
2021/01/15 02:56:16;;;;;;;0.30;0.30;;;;;;;;;;5057491;28;20206;-71
2021/01/15 02:58:42;;;;;;;0.30;0.30;;;;;;;;;;5057218;28;20206;-71
2021/01/15 03:01:10;;;;;;;0.40;0.33;;;;;;;;;;5057165;28;20210;-71
2021/01/15 03:03:43;;;;;;;0.37;0.27;;;;;;;;;;5057352;28;20617;-71
2021/01/15 03:06:12;;;;;;;0.30;0.30;;;;;;;;;;5057579;28;20227;-71
2021/01/15 03:08:41;;;;;;;0.40;0.40;;;;;;;;;;5057429;28;20211;-71
2021/01/15 03:11:08;;;;;;;0.40;0.40;;;;;;;;;;5057333;28;20654;-71
2021/01/15 03:13:35;;;;;;;0.40;0.40;;;;;;;;;;5057396;28;20214;-70
2021/01/15 03:16:03;;;;;;;0.40;0.40;;;;;;;;;;5057136;28;20233;-70
2021/01/15 03:18:31;;;;;;;0.20;0.20;;;;;;;;;;5057421;28;20704;-71
2021/01/15 03:20:59;;;;;;;0.87;0.50;;;;;;;;;;5057344;28;20245;-72
2021/01/15 03:23:30;;;;;;;0.30;0.30;;;;;;;;;;5060901;28;20315;-72
2021/01/15 03:25:57;;;;;;;0.40;0.40;;;;;;;;;;5060966;28;20234;-71
2021/01/15 03:28:24;;;;;;;0.77;0.30;;;;;;;;;;5060983;28;20211;-71
2021/01/15 03:30:51;;;;;;;0.30;0.30;;;;;;;;;;5060403;28;20203;-71
2021/01/15 03:33:18;;;;;;;0.37;0.37;;;;;;;;;;5060860;28;20203;-70
2021/01/15 03:35:45;;;;;;;0.50;0.50;;;;;;;;;;5060712;28;20325;-71
2021/01/15 03:38:13;;;;;;;0.60;0.40;;;;;;;;;;5060582;28;20234;-71
2021/01/15 03:40:42;;;;;;;0.37;0.37;;;;;;;;;;5060660;28;20261;-71
2021/01/15 03:43:12;;;;;;;0.30;0.30;;;;;;;;;;5060569;28;20241;-71
2021/01/15 03:45:39;;;;;;;0.40;0.40;;;;;;;;;;5060285;28;20314;-70
2021/01/15 03:48:07;;;;;;;0.30;0.30;;;;;;;;;;5060858;28;20646;-71
2021/01/15 03:50:34;;;;;;;0.20;0.20;;;;;;;;;;5060328;28;20636;-72
2021/01/15 03:53:01;;;;;;;0.30;0.30;;;;;;;;;;5060470;28;20207;-70
2021/01/15 03:55:28;;;;;;;0.93;0.43;;;;;;;;;;5060104;28;20277;-70
2021/01/15 03:57:56;;;;;;;0.30;0.30;;;;;;;;;;5060355;28;20289;-70
2021/01/15 04:00:25;;;;;;;0.30;0.30;;;;;;;;;;5059858;28;20633;-69
2021/01/15 04:02:53;;;;;;;0.20;0.20;;;;;;;;;;5060045;28;20226;-70
2021/01/15 04:05:20;;;;;;;0.40;0.40;;;;;;;;;;5059873;28;20328;-71
2021/01/15 04:07:47;;;;;;;1.00;0.40;;;;;;;;;;5060266;28;20207;-71
2021/01/15 04:10:14;;;;;;;0.20;0.20;;;;;;;;;;5060120;28;20666;-71
2021/01/15 04:12:42;;;;;;;0.40;0.30;;;;;;;;;;5060022;28;20299;-71
2021/01/15 04:15:10;;;;;;;0.20;0.20;;;;;;;;;;5059761;28;20237;-70
2021/01/15 04:17:37;;;;;;;0.30;0.30;;;;;;;;;;5059874;28;20207;-71
2021/01/15 04:20:05;;;;;;;2.83;0.30;;;;;;;;;;5060059;28;20211;-71
2021/01/15 04:22:33;;;;;;;0.30;0.30;;;;;;;;;;5059870;28;20230;-70
2021/01/15 04:25:00;;;;;;;0.73;0.27;;;;;;;;;;5060186;28;20290;-71
2021/01/15 04:27:30;;;;;;;0.20;0.20;;;;;;;;;;5059789;28;20210;-70
2021/01/15 04:30:01;;;;;;;0.30;0.30;;;;;;;;;;5059620;28;20694;-70
2021/01/15 04:32:29;;;;;;;0.20;0.20;;;;;;;;;;5059612;28;20246;-71
2021/01/15 04:34:56;;;;;;;0.20;0.20;;;;;;;;;;5059593;28;20223;-70
2021/01/15 04:37:24;;;;;;;0.20;0.20;;;;;;;;;;5059480;28;20289;-70
2021/01/15 04:39:51;;;;;;;0.40;0.40;;;;;;;;;;5059247;28;20292;-70
2021/01/15 04:42:19;;;;;;;0.30;0.30;;;;;;;;;;5059118;28;20657;-71
2021/01/15 04:44:47;;;;;;;0.30;0.30;;;;;;;;;;5059135;28;20690;-70
2021/01/15 04:47:14;;;;;;;0.20;0.20;;;;;;;;;;5058957;28;20294;-69
2021/01/15 04:49:44;;;;;;;0.30;0.30;;;;;;;;;;5059197;28;20207;-70
2021/01/15 04:52:12;;;;;;;0.80;0.30;;;;;;;;;;5059261;28;20203;-71
2021/01/15 04:54:40;;;;;;;0.30;0.30;;;;;;;;;;5059356;28;20227;-70
2021/01/15 04:57:07;;;;;;;0.30;0.30;;;;;;;;;;5059153;28;20211;-71
2021/01/15 04:59:39;;;;;;;0.73;0.40;;;;;;;;;;5059276;28;20201;-71
2021/01/15 05:02:09;;;;;;;0.20;0.20;;;;;;;;;;5058894;28;20229;-71
2021/01/15 05:04:36;;;;;;;0.30;0.30;;;;;;;;;;5059020;28;20666;-71
2021/01/15 05:07:05;;;;;;;0.30;0.30;;;;;;;;;;5059015;28;20213;-71
2021/01/15 05:09:39;;;;;;;0.30;0.30;;;;;;;;;;5058816;28;20352;-71
2021/01/15 05:12:07;;;;;;;0.60;0.40;;;;;;;;;;5058696;28;20213;-69
2021/01/15 05:14:34;;;;;;;0.27;0.27;;;;;;;;;;5058658;28;20226;-70
2021/01/15 05:17:02;;;;;;;0.20;0.20;;;;;;;;;;5058372;28;20207;-70
2021/01/15 05:19:29;;;;;;;0.30;0.30;;;;;;;;;;5058899;28;20290;-70
2021/01/15 05:21:56;;;;;;;0.30;0.30;;;;;;;;;;5058443;28;20314;-70
2021/01/15 05:24:24;;;;;;;0.83;0.50;;;;;;;;;;5058569;28;20229;-70
2021/01/15 05:26:51;;;;;;;0.20;0.20;;;;;;;;;;5055089;28;20196;-71
2021/01/15 05:29:18;;;;;;;0.30;0.30;;;;;;;;;;5058347;28;20209;-70
2021/01/15 05:31:49;;;;;;;0.30;0.30;;;;;;;;;;5058192;28;20199;-71
2021/01/15 05:34:17;;;;;;;0.50;0.50;;;;;;;;;;5058291;28;20225;-71
2021/01/15 05:36:44;;;;;;;0.40;0.40;;;;;;;;;;5058442;28;20209;-71
2021/01/15 05:39:11;;;;;;;0.47;0.30;;;;;;;;;;5058245;28;20665;-70
2021/01/15 05:41:39;;;;;;;0.70;0.70;;;;;;;;;;5058254;28;20209;-70
2021/01/15 05:44:07;;;;;;;1.03;1.00;;;;;;;;;;5057961;28;20200;-71
2021/01/15 05:46:34;;;;;;;0.40;0.33;;;;;;;;;;5057993;28;20217;-71
2021/01/15 05:49:10;;;;;;;0.77;0.57;;;;;;;;;;5049696;28;20204;-71
2021/01/15 05:51:38;;;;;;;1.33;0.40;;;;;;;;;;5058092;28;20290;-71
2021/01/15 05:54:06;;;;;;;3.80;0.60;;;;;;;;;;5057795;28;20211;-71
2021/01/15 05:56:40;;;;;;;0.90;0.47;;;;;;;;;;5058188;28;20725;-71
2021/01/15 05:59:08;;;;;;;0.63;0.63;;;;;;;;;;5058148;28;20240;-71
2021/01/15 06:01:46;;;;;;;2.37;0.90;;;;;;;;;;5058027;28;20294;-71
2021/01/15 06:04:14;;;;;;;1.23;0.40;;;;;;;;;;5044527;28;20640;-71
2021/01/15 06:06:41;;;;;;;1.07;0.47;;;;;;;;;;5057963;28;20213;-71
2021/01/15 06:09:09;;;;;;;0.50;0.50;;;;;;;;;;5057891;28;20207;-71
2021/01/15 06:11:36;;;;;;;0.50;0.50;;;;;;;;;;5055689;28;20217;-72
2021/01/15 06:14:16;;;;;;;0.60;0.60;;;;;;;;;;5057522;28;20202;-72
2021/01/15 06:16:43;;;;;;;1.70;0.80;;;;;;;;;;5057210;28;20219;-72
2021/01/15 06:19:10;;;;;;;1.07;0.70;;;;;;;;;;5057194;28;20218;-72
2021/01/15 06:21:37;;;;;;;1.05;0.80;;;;;;;;;;5056249;28;20217;-72
2021/01/15 06:24:08;;;;;;;0.67;0.57;;;;;;;;;;5056943;28;20242;-72
2021/01/15 06:26:36;;;;;;;0.70;0.70;;;;;;;;;;5056212;28;20239;-72
2021/01/15 06:29:08;;;;;;;0.70;0.50;;;;;;;;;;5056089;28;20680;-72
2021/01/15 06:31:43;;;;;;;1.97;0.70;;;;;;;;;;5056087;28;20277;-72
2021/01/15 06:34:10;;;;;;;2.57;0.63;;;;;;;;;;5056758;28;20287;-72
2021/01/15 06:37:00;;;;;;;2.50;0.80;;;;;;;;;;5056234;28;20341;-72
2021/01/15 06:39:27;;;;;;;0.53;0.53;;;;;;;;;;5041127;28;20250;-72
2021/01/15 06:42:02;;;;;;;0.40;0.40;;;;;;;;;;5056560;28;20286;-73
2021/01/15 06:44:31;;;;;;;0.50;0.50;;;;;;;;;;5056475;28;20222;-72
2021/01/15 06:47:02;;;;;;;0.60;0.60;;;;;;;;;;5056339;28;20213;-72
2021/01/15 06:49:31;;;;;;;0.30;0.30;;;;;;;;;;5056478;28;20211;-72
2021/01/15 06:51:59;;;;;;;0.77;0.40;;;;;;;;;;5056668;28;20209;-72
2021/01/15 06:54:27;;;;;;;0.40;0.40;;;;;;;;;;5056557;28;20227;-72
2021/01/15 06:57:11;;;;;;;0.50;0.50;;;;;;;;;;5057834;28;20218;-72
2021/01/15 06:59:39;;;;;;;3.73;3.43;;;;;;;;;;5060342;28;20761;-72
2021/01/15 07:02:10;;;;;;;1.17;1.07;;;;;;;;;;5060239;28;20227;-72
2021/01/15 07:04:53;;;;;;;0.50;0.50;;;;;;;;;;5060276;28;20709;-72
2021/01/15 07:07:20;;;;;;;0.80;0.80;;;;;;;;;;5055435;28;20569;-72
2021/01/15 07:09:48;;;;;;;0.60;0.60;;;;;;;;;;5060217;28;20210;-72
2021/01/15 07:12:15;;;;;;;0.40;0.40;;;;;;;;;;5060208;28;20557;-72
2021/01/15 07:14:47;;;;;;;0.50;0.50;;;;;;;;;;5059400;28;20294;-72
2021/01/15 07:17:29;;;;;;;0.60;0.60;;;;;;;;;;5059043;28;20217;-72
2021/01/15 07:20:07;;;;;;;4.90;0.77;;;;;;;;;;5057457;28;20313;-72
2021/01/15 07:22:37;;;;;;;0.50;0.50;;;;;;;;;;5055345;28;20285;-72
2021/01/15 07:25:05;;;;;;;2.30;1.20;;;;;;;;;;5059679;28;20759;-72
2021/01/15 07:27:33;;;;;;;0.80;0.80;;;;;;;;;;5059926;28;20274;-72
2021/01/15 07:30:03;;;;;;;0.53;0.50;;;;;;;;;;5058939;28;20257;-72
2021/01/15 07:32:30;;;;;;;0.67;0.60;;;;;;;;;;5057143;28;20230;-72
2021/01/15 07:34:58;;;;;;;1.30;0.77;;;;;;;;;;5059287;28;20219;-72
2021/01/15 07:37:29;;;;;;;0.63;0.63;;;;;;;;;;5058693;28;20238;-73
2021/01/15 07:40:00;;;;;;;1.10;1.10;;;;;;;;;;5058604;28;20706;-72
2021/01/15 07:42:43;;;;;;;1.03;1.00;;;;;;;;;;5053344;28;20302;-74
2021/01/15 07:45:25;;;;;;;0.77;0.70;;;;;;;;;;5058104;28;20244;-73
2021/01/15 07:47:54;;;;;;;0.80;0.73;;;;;;;;;;5056055;28;20211;-74
2021/01/15 07:50:27;;;;;;;0.50;0.50;;;;;;;;;;5059266;28;20203;-71
2021/01/15 07:53:01;;;;;;;0.60;0.60;;;;;;;;;;5059235;28;20195;-73
2021/01/15 07:55:42;;;;;;;0.43;0.43;;;;;;;;;;5059519;28;20241;-73
2021/01/15 07:58:09;;;;;;;0.53;0.53;;;;;;;;;;5055552;28;20659;-73
2021/01/15 08:00:36;;;;;;;0.77;0.70;;;;;;;;;;5055894;28;20233;-73
2021/01/15 08:03:05;;;;;;;0.90;0.90;;;;;;;;;;5056735;28;20223;-73
2021/01/15 08:05:33;;;;;;;0.73;0.70;;;;;;;;;;5058910;28;20234;-73
2021/01/15 08:08:10;;;;;;;2.73;0.80;;;;;;;;;;5058848;28;20205;-73
2021/01/15 08:10:48;;;;;;;0.80;0.67;;;;;;;;;;5059543;28;20260;-72
2021/01/15 08:13:19;;;;;;;1.00;0.90;;;;;;;;;;5058713;28;20257;-72
2021/01/15 08:15:46;;;;;;;0.70;0.70;;;;;;;;;;5051054;28;20257;-74
2021/01/15 08:18:15;;;;;;;0.80;0.80;;;;;;;;;;5058948;28;20206;-74
2021/01/15 08:20:46;;;;;;;0.80;0.80;;;;;;;;;;5058841;28;20209;-74
2021/01/15 08:23:21;;;;;;;2.67;0.90;;;;;;;;;;5056449;28;20241;-74
2021/01/15 08:25:49;;;;;;;0.80;0.63;;;;;;;;;;5053412;28;20226;-74
2021/01/15 08:28:16;;;;;;;1.03;0.90;;;;;;;;;;5058578;28;20222;-74
2021/01/15 08:30:56;;;;;;;0.90;0.90;;;;;;;;;;5058536;28;20218;-74
2021/01/15 08:33:25;;;;;;;1.20;0.80;;;;;;;;;;5058593;28;20210;-74
2021/01/15 08:35:53;;;;;;;2.50;0.70;;;;;;;;;;5058575;28;20246;-74
2021/01/15 08:38:27;;;;;;;1.20;1.10;;;;;;;;;;5058487;28;20268;-74
2021/01/15 08:41:23;;;;;;;0.70;0.70;;;;;;;;;;5058442;28;20202;-74
2021/01/15 08:43:51;;;;;;;1.17;0.80;;;;;;;;;;5055710;28;20569;-74
2021/01/15 08:46:19;;;;;;;0.60;0.60;;;;;;;;;;5050823;28;20214;-74
2021/01/15 08:48:48;;;;;;;0.80;0.80;;;;;;;;;;5058751;28;20658;-74
2021/01/15 08:51:19;;;;;;;8.30;2.17;;;;;;;;;;5058238;28;20282;-74
2021/01/15 08:54:05;;;;;;;5.20;2.23;;;;;;;;;;5054809;28;20202;-75
2021/01/15 08:56:36;;;;;;;5.63;2.47;;;;;;;;;;5055995;28;20209;-74
2021/01/15 08:59:04;;;;;;;2.50;1.90;;;;;;;;;;5057674;28;20230;-74
2021/01/15 09:01:33;;;;;;;0.80;0.73;;;;;;;;;;5050702;28;20322;-74
2021/01/15 09:04:05;;;;;;;0.80;0.80;;;;;;;;;;5053953;28;20223;-75
2021/01/15 09:06:33;;;;;;;0.80;0.80;;;;;;;;;;5058244;28;20229;-75
2021/01/15 09:09:03;;;;;;;0.70;0.70;;;;;;;;;;5057204;28;20312;-75
2021/01/15 09:11:35;;;;;;;1.40;0.80;;;;;;;;;;5057831;28;20248;-74
2021/01/15 09:14:02;;;;;;;0.70;0.70;;;;;;;;;;5056068;28;20321;-74
2021/01/15 09:16:30;;;;;;;2.10;0.80;;;;;;;;;;5057371;28;20261;-74
2021/01/15 09:19:04;;;;;;;0.87;0.73;;;;;;;;;;5057378;28;20211;-74
2021/01/15 09:21:32;;;;;;;0.70;0.70;;;;;;;;;;5057511;28;20268;-74
2021/01/15 09:23:59;;;;;;;1.47;0.70;;;;;;;;;;5057683;28;20690;-74
2021/01/15 09:26:27;;;;;;;1.17;0.90;;;;;;;;;;5057395;28;20199;-74
2021/01/15 09:28:54;;;;;;;0.80;0.80;;;;;;;;;;5057915;28;20206;-74
2021/01/15 09:31:22;;;;;;;1.30;0.97;;;;;;;;;;5057392;28;20221;-74
2021/01/15 09:33:51;;;;;;;1.00;0.90;;;;;;;;;;5057518;28;20731;-74
2021/01/15 09:36:22;;;;;;;1.00;0.90;;;;;;;;;;5057451;28;20952;-74
2021/01/15 09:38:50;;;;;;;1.10;1.00;;;;;;;;;;5053964;28;20473;-75
2021/01/15 09:41:17;;;;;;;1.00;1.00;;;;;;;;;;5057223;28;20491;-75
2021/01/15 09:43:44;;;;;;;0.83;0.83;;;;;;;;;;5057207;28;20888;-75
2021/01/15 09:46:21;;;;;;;1.23;0.87;;;;;;;;;;5057174;28;20476;-74
2021/01/15 09:48:49;;;;;;;0.77;0.73;;;;;;;;;;5054081;28;20916;-73
2021/01/15 09:51:16;;;;;;;1.13;0.80;;;;;;;;;;5057000;28;20449;-74
2021/01/15 09:53:43;;;;;;;1.87;1.10;;;;;;;;;;5057268;28;20464;-73
2021/01/15 09:56:20;;;;;;;1.10;1.00;;;;;;;;;;5055111;28;20468;-74
2021/01/15 09:58:47;;;;;;;1.00;0.90;;;;;;;;;;5055462;28;20883;-74
2021/01/15 10:01:14;;;;;;;1.10;1.10;;;;;;;;;;5050124;28;20529;-73
2021/01/15 10:03:41;;;;;;;1.00;1.00;;;;;;;;;;5050504;28;20250;-74
2021/01/15 10:06:08;;;;;;;0.80;0.80;;;;;;;;;;5056077;28;20305;-74
2021/01/15 10:08:35;;;;;;;0.90;0.90;;;;;;;;;;5056689;28;20214;-74
2021/01/15 10:11:02;;;;;;;0.70;0.70;;;;;;;;;;5048884;28;20203;-74
2021/01/15 10:13:31;;;;;;;1.00;1.00;;;;;;;;;;5055367;28;20198;-74
2021/01/15 10:16:03;;;;;;;1.10;1.00;;;;;;;;;;5053447;28;20280;-74
2021/01/15 10:18:30;;;;;;;1.33;1.00;;;;;;;;;;5056241;28;20445;-74
2021/01/15 10:20:58;;;;;;;0.87;0.87;;;;;;;;;;5055122;28;20452;-74
2021/01/15 10:23:25;;;;;;;1.20;1.10;;;;;;;;;;5056221;28;20477;-74
2021/01/15 10:25:52;;;;;;;1.93;1.03;;;;;;;;;;5056067;28;20567;-74
2021/01/15 10:28:20;;;;;;;1.10;0.93;;;;;;;;;;5055937;28;20495;-73
2021/01/15 10:30:49;;;;;;;1.73;1.63;;;;;;;;;;5056353;28;20859;-74
2021/01/15 10:33:16;;;;;;;1.50;1.40;;;;;;;;;;5056708;28;20445;-74
2021/01/15 10:35:43;;;;;;;2.50;1.57;;;;;;;;;;5056611;28;20526;-75
2021/01/15 10:38:14;;;;;;;1.90;1.70;;;;;;;;;;5056313;28;20483;-75
2021/01/15 10:40:41;;;;;;;2.70;1.40;;;;;;;;;;5056732;28;20893;-75
2021/01/15 10:43:08;;;;;;;2.57;2.37;;;;;;;;;;5056317;28;20481;-75
2021/01/15 10:45:35;;;;;;;1.70;1.40;;;;;;;;;;5056138;28;20523;-75
2021/01/15 10:48:05;;;;;;;1.50;1.40;;;;;;;;;;5056377;28;20463;-74
2021/01/15 10:50:32;;;;;;;2.20;2.10;;;;;;;;;;5055956;28;20456;-74
2021/01/15 10:52:59;;;;;;;4.20;1.53;;;;;;;;;;5055938;28;20925;-73
2021/01/15 10:55:26;;;;;;;3.03;1.90;;;;;;;;;;5055690;28;20465;-74
2021/01/15 10:57:53;;;;;;;2.37;1.90;;;;;;;;;;5056439;28;20541;-74
2021/01/15 11:00:21;;;;;;;1.60;1.50;;;;;;;;;;5055128;28;20491;-72
2021/01/15 11:02:48;;;;;;;1.53;1.43;;;;;;;;;;5039154;28;21023;-72
2021/01/15 11:05:16;;;;;;;1.93;1.80;;;;;;;;;;5044032;28;20512;-73
2021/01/15 11:07:44;;;;;;;1.67;1.57;;;;;;;;;;5058329;28;20489;-72
2021/01/15 11:10:12;;;;;;;1.57;1.47;;;;;;;;;;5056206;28;20460;-71
2021/01/15 11:12:39;;;;;;;2.47;1.20;;;;;;;;;;5055746;28;20449;-72
2021/01/15 11:15:06;;;;;;;3.57;2.27;;;;;;;;;;5055579;28;20952;-72
2021/01/15 11:17:33;;;;;;;1.57;1.40;;;;;;;;;;5056377;28;20456;-73
2021/01/15 11:20:00;;;;;;;1.50;1.40;;;;;;;;;;5056266;28;20456;-71
2021/01/15 11:22:28;;;;;;;1.10;1.10;;;;;;;;;;5056197;28;20472;-73
2021/01/15 11:24:55;;;;;;;1.50;1.40;;;;;;;;;;5055887;28;20453;-72
2021/01/15 11:27:23;;;;;;;1.67;1.57;;;;;;;;;;5052580;28;20520;-72
2021/01/15 11:29:50;;;;;;;1.30;1.30;;;;;;;;;;5055789;28;20445;-73
2021/01/15 11:32:18;;;;;;;3.53;1.83;;;;;;;;;;5055684;28;20574;-72
2021/01/15 11:34:45;;;;;;;1.67;1.50;;;;;;;;;;5055857;28;20629;-72
2021/01/15 11:37:12;;;;;;;2.50;1.83;;;;;;;;;;5056070;28;20222;-71
2021/01/15 11:39:40;;;;;;;2.10;1.50;;;;;;;;;;5055647;28;20265;-71
2021/01/15 11:42:07;;;;;;;1.60;1.50;;;;;;;;;;5055705;28;20912;-71
2021/01/15 11:44:34;;;;;;;1.83;1.73;;;;;;;;;;5059762;28;20233;-71
2021/01/15 11:47:01;;;;;;;1.80;1.70;;;;;;;;;;5056327;28;20306;-70
2021/01/15 11:49:30;;;;;;;2.13;1.50;;;;;;;;;;5041713;28;20207;-71
2021/01/15 11:51:57;;;;;;;2.40;1.53;;;;;;;;;;5061156;28;20481;-70
2021/01/15 11:54:28;;;;;;;2.03;1.73;;;;;;;;;;5043940;28;20815;-71
2021/01/15 11:56:56;;;;;;;1.57;1.47;;;;;;;;;;5052607;28;20532;-68
2021/01/15 11:59:23;;;;;;;5.00;2.53;;;;;;;;;;5040546;28;20474;-68
2021/01/15 12:01:54;;;;;;;2.07;1.73;;;;;;;;;;5057888;28;20465;-75
2021/01/15 12:04:21;;;;;;;1.70;1.37;;;;;;;;;;5058022;28;20499;-74
2021/01/15 12:06:51;;;;;;;1.67;1.40;;;;;;;;;;5059150;28;20460;-75
2021/01/15 12:09:18;;;;;;;2.73;1.27;;;;;;;;;;5059250;28;20206;-74
2021/01/15 12:11:45;;;;;;;1.63;1.53;;;;;;;;;;5058815;28;20453;-74
2021/01/15 12:14:14;;;;;;;1.70;1.60;;;;;;;;;;5059186;28;20310;-74
2021/01/15 12:16:42;;;;;;;1.37;1.27;;;;;;;;;;5058750;28;20229;-74
2021/01/15 12:19:09;;;;;;;1.50;1.40;;;;;;;;;;5055686;28;20963;-75
2021/01/15 12:21:36;;;;;;;1.50;1.30;;;;;;;;;;5058616;28;20199;-74
2021/01/15 12:24:04;;;;;;;1.90;1.80;;;;;;;;;;5058928;28;20231;-74
2021/01/15 12:26:32;;;;;;;1.50;1.40;;;;;;;;;;5059093;28;20294;-74
2021/01/15 12:28:59;;;;;;;1.53;1.47;;;;;;;;;;5057467;28;20238;-74
2021/01/15 12:31:31;;;;;;;1.50;1.40;;;;;;;;;;5058910;28;20245;-73
2021/01/15 12:33:58;;;;;;;2.33;2.13;;;;;;;;;;5058340;28;20203;-74
2021/01/15 12:36:26;;;;;;;1.90;1.80;;;;;;;;;;5058784;28;20650;-74
2021/01/15 12:38:54;;;;;;;2.00;1.90;;;;;;;;;;5058135;28;20600;-74
2021/01/15 12:41:21;;;;;;;2.07;1.80;;;;;;;;;;5058831;28;20290;-74
2021/01/15 12:43:48;;;;;;;1.80;1.70;;;;;;;;;;5058188;28;20264;-74
2021/01/15 12:46:15;;;;;;;3.50;3.20;;;;;;;;;;5063835;28;20237;-74
2021/01/15 12:48:43;;;;;;;2.30;2.10;;;;;;;;;;5060274;28;20211;-74
2021/01/15 12:51:11;;;;;;;2.97;2.17;;;;;;;;;;5058527;28;20203;-75
2021/01/15 12:53:38;;;;;;;10.40;7.33;;;;;;;;;;5057501;28;20249;-77
2021/01/15 12:56:05;;;;;;;5.27;3.57;;;;;;;;;;5056191;28;20474;-75
2021/01/15 12:58:32;;;;;;;3.10;2.77;;;;;;;;;;5056293;28;20540;-76
2021/01/15 13:00:59;;;;;;;3.43;3.13;;;;;;;;;;5054954;28;20969;-74
2021/01/15 13:03:26;;;;;;;2.97;2.17;;;;;;;;;;5057724;28;20482;-75
2021/01/15 13:05:54;;;;;;;2.63;2.40;;;;;;;;;;5058831;28;20541;-74
2021/01/15 13:08:22;;;;;;;4.37;2.60;;;;;;;;;;5055833;28;20487;-74
2021/01/15 13:10:49;;;;;;;4.87;3.30;;;;;;;;;;5057804;28;20441;-75
2021/01/15 13:13:17;;;;;;;2.20;1.97;;;;;;;;;;5058056;28;20532;-75
2021/01/15 13:15:44;;;;;;;4.13;2.40;;;;;;;;;;5057458;28;20883;-74
2021/01/15 13:18:11;;;;;;;3.47;2.50;;;;;;;;;;5057831;28;20925;-74
2021/01/15 13:20:43;;;;;;;3.57;2.20;;;;;;;;;;5056699;28;20438;-75
2021/01/15 13:23:12;;;;;;;2.23;1.97;;;;;;;;;;5057914;28;20535;-74
2021/01/15 13:25:39;;;;;;;1.83;1.73;;;;;;;;;;5057018;28;20507;-75
2021/01/15 13:28:08;;;;;;;1.80;1.70;;;;;;;;;;5057634;28;20448;-75
2021/01/15 13:30:36;;;;;;;2.70;1.97;;;;;;;;;;5057122;28;20488;-75
2021/01/15 13:33:16;;;;;;;2.07;1.80;;;;;;;;;;5057707;28;20210;-75
2021/01/15 13:35:44;;;;;;;1.77;1.67;;;;;;;;;;5056342;28;20229;-75
2021/01/15 13:38:12;;;;;;;2.50;1.97;;;;;;;;;;5057351;28;20999;-75
2021/01/15 13:40:39;;;;;;;1.70;1.60;;;;;;;;;;5057268;28;20203;-75
2021/01/15 13:43:06;;;;;;;2.73;1.90;;;;;;;;;;5057290;28;20230;-75
2021/01/15 13:45:33;;;;;;;1.77;1.67;;;;;;;;;;5056098;28;20227;-75
2021/01/15 13:48:00;;;;;;;2.23;2.00;;;;;;;;;;5049997;28;20578;-76
2021/01/15 13:50:45;;;;;;;2.47;2.13;;;;;;;;;;5057183;28;20211;-76
2021/01/15 13:53:16;;;;;;;1.80;1.70;;;;;;;;;;5050697;28;20630;-76
2021/01/15 13:55:44;;;;;;;2.43;1.73;;;;;;;;;;5057024;28;20253;-76
2021/01/15 13:58:11;;;;;;;2.50;2.17;;;;;;;;;;5053599;28;20203;-75
2021/01/15 14:00:38;;;;;;;1.70;1.60;;;;;;;;;;5056667;28;20203;-75
2021/01/15 14:03:05;;;;;;;2.37;2.00;;;;;;;;;;5056962;28;20521;-75
2021/01/15 14:05:32;;;;;;;1.70;1.60;;;;;;;;;;5056773;28;20556;-76
2021/01/15 14:07:59;;;;;;;1.83;1.57;;;;;;;;;;5057063;28;20434;-76
2021/01/15 14:10:28;;;;;;;1.80;1.70;;;;;;;;;;5057291;28;20437;-75
2021/01/15 14:12:56;;;;;;;3.00;1.93;;;;;;;;;;5057372;28;20486;-76
2021/01/15 14:15:25;;;;;;;2.07;1.73;;;;;;;;;;5056770;28;20544;-76
2021/01/15 14:17:52;;;;;;;2.20;1.53;;;;;;;;;;5056952;28;20493;-76
2021/01/15 14:20:20;;;;;;;1.77;1.67;;;;;;;;;;5056774;28;20848;-75
2021/01/15 14:22:47;;;;;;;1.70;1.60;;;;;;;;;;5057080;28;20445;-76
2021/01/15 14:25:14;;;;;;;2.47;2.10;;;;;;;;;;5056496;28;21046;-75
2021/01/15 14:27:42;;;;;;;1.90;1.80;;;;;;;;;;5053063;28;20556;-76
2021/01/15 14:30:11;;;;;;;1.80;1.70;;;;;;;;;;5056614;28;20483;-76
2021/01/15 14:32:44;;;;;;;2.33;2.13;;;;;;;;;;5056592;28;20207;-76
2021/01/15 14:35:15;;;;;;;2.40;2.13;;;;;;;;;;5056424;28;20890;-76
2021/01/15 14:37:45;;;;;;;4.27;2.37;;;;;;;;;;5052965;28;20444;-75
2021/01/15 14:40:13;;;;;;;1.83;1.73;;;;;;;;;;5056715;28;20714;-75
2021/01/15 14:42:40;;;;;;;2.20;2.00;;;;;;;;;;5056689;28;20461;-76
2021/01/15 14:45:10;;;;;;;1.73;1.63;;;;;;;;;;5056390;28;20245;-76
2021/01/15 14:47:37;;;;;;;1.90;1.80;;;;;;;;;;5061885;28;20441;-73
2021/01/15 14:50:06;;;;;;;6.13;2.23;;;;;;;;;;5056489;28;20210;-72
2021/01/15 14:52:33;;;;;;;2.83;2.00;;;;;;;;;;5055353;28;20456;-72
2021/01/15 14:55:00;;;;;;;2.53;2.33;;;;;;;;;;5055754;28;20572;-72